createdAt,value
2023-01-03T00:00:28.097Z,24.16
2023-01-03T00:05:36.451Z,24.14
2023-01-03T00:10:39.554Z,24.17
2023-01-03T00:15:42.749Z,24.15
2023-01-03T00:20:46.871Z,24.18
2023-01-03T00:25:49.622Z,24.17
2023-01-03T00:30:52.851Z,24.19
2023-01-03T00:35:57.007Z,24.19
2023-01-03T00:41:05.916Z,24.17
2023-01-03T00:46:09.361Z,24.18
2023-01-03T00:51:15.261Z,24.15
2023-01-03T00:56:20.222Z,24.16
2023-01-03T01:01:25.244Z,24.18
2023-01-03T01:06:31.329Z,24.19
2023-01-03T01:11:34.517Z,24.18
2023-01-03T01:16:37.305Z,24.16
2023-01-03T01:21:41.646Z,24.16
2023-01-03T01:26:44.631Z,24.19
2023-01-03T01:31:48.485Z,24.21
2023-01-03T01:36:52.819Z,24.18
2023-01-03T01:42:30.995Z,24.21
2023-01-03T01:47:37.860Z,24.22
2023-01-03T01:52:47.347Z,24.22
2023-01-03T01:57:50.841Z,24.19
2023-01-03T02:02:55.110Z,24.24
2023-01-03T02:08:00.394Z,24.23
2023-01-03T02:13:12.299Z,24.19
2023-01-03T02:18:29.296Z,24.20
2023-01-03T02:24:11.557Z,24.17
2023-01-03T02:29:34.326Z,24.18
2023-01-03T02:34:50.808Z,24.18
2023-01-03T02:40:01.022Z,24.20
2023-01-03T02:45:10.464Z,24.21
2023-01-03T02:50:15.518Z,24.18
2023-01-03T02:55:24.082Z,24.23
2023-01-03T03:00:31.637Z,24.20
2023-01-03T03:05:48.715Z,24.21
2023-01-03T03:11:11.826Z,24.21
2023-01-03T03:16:41.562Z,24.21
2023-01-03T03:22:03.050Z,24.22
2023-01-03T03:27:28.144Z,24.22
2023-01-03T03:32:35.013Z,24.23
2023-01-03T03:37:41.919Z,24.22
2023-01-03T03:43:08.290Z,24.19
2023-01-03T03:48:19.207Z,24.20
2023-01-03T03:53:28.161Z,24.20
2023-01-03T03:58:37.608Z,24.20
2023-01-03T04:03:41.984Z,24.20
2023-01-03T04:08:48.298Z,24.19
2023-01-03T04:13:51.178Z,24.20
2023-01-03T04:18:53.964Z,24.19
2023-01-03T04:23:58.023Z,24.18
2023-01-03T04:29:00.779Z,24.13
2023-01-03T04:34:03.594Z,24.06
2023-01-03T04:39:07.813Z,23.99
2023-01-03T04:44:10.937Z,23.93
2023-01-03T04:49:13.665Z,23.82
2023-01-03T04:54:17.765Z,23.68
2023-01-03T04:59:20.502Z,23.61
2023-01-03T05:04:23.373Z,23.52
2023-01-03T05:09:27.791Z,23.45
2023-01-03T05:14:30.735Z,23.34
2023-01-03T05:19:33.544Z,23.25
2023-01-03T05:24:51.576Z,23.16
2023-01-03T05:29:56.194Z,23.06
2023-01-03T05:34:58.931Z,22.94
2023-01-03T05:40:03.140Z,22.84
2023-01-03T05:45:06.816Z,22.75
2023-01-03T05:50:10.116Z,22.68
2023-01-03T05:55:14.275Z,22.62
2023-01-03T06:00:17.596Z,22.55
2023-01-03T06:05:20.389Z,22.49
2023-01-03T06:10:24.597Z,22.39
2023-01-03T06:15:27.512Z,22.35
2023-01-03T06:20:31.017Z,22.29
2023-01-03T06:25:35.154Z,22.26
2023-01-03T06:30:37.958Z,22.18
2023-01-03T06:35:40.960Z,22.14
2023-01-03T06:40:49.796Z,22.05
2023-01-03T06:46:12.129Z,22.00
2023-01-03T06:51:35.704Z,21.91
2023-01-03T06:56:39.848Z,21.83
2023-01-03T07:01:42.697Z,21.78
2023-01-03T07:06:45.777Z,21.69
2023-01-03T07:11:49.888Z,21.66
2023-01-03T07:16:52.607Z,21.58
2023-01-03T07:21:55.339Z,21.54
2023-01-03T07:26:59.461Z,21.52
2023-01-03T07:32:02.999Z,21.48
2023-01-03T07:37:05.964Z,21.44
2023-01-03T07:42:27.748Z,21.43
2023-01-03T07:47:30.857Z,21.41
2023-01-03T07:52:33.825Z,21.40
2023-01-03T07:57:38.193Z,21.39
2023-01-03T08:02:41.096Z,21.39
2023-01-03T08:07:43.966Z,21.36
2023-01-03T08:13:05.380Z,21.35
2023-01-03T08:18:08.188Z,21.41
2023-01-03T08:23:11.425Z,18.26
2023-01-03T08:28:15.607Z,17.40
2023-01-03T08:33:20.370Z,19.77
2023-01-03T08:38:27.900Z,20.07
2023-01-03T08:43:36.524Z,20.54
2023-01-03T08:48:39.535Z,20.79
2023-01-03T08:53:42.296Z,20.91
2023-01-03T08:58:46.607Z,21.00
2023-01-03T09:03:49.642Z,20.97
2023-01-03T09:08:52.754Z,21.03
2023-01-03T09:13:57.534Z,21.01
2023-01-03T09:19:02.516Z,21.02
2023-01-03T09:24:05.886Z,21.07
2023-01-03T09:29:10.072Z,21.07
2023-01-03T09:34:12.943Z,21.04
2023-01-03T09:39:16.539Z,21.04
2023-01-03T09:44:20.684Z,21.03
2023-01-03T09:49:23.529Z,20.97
2023-01-03T09:54:48.059Z,20.92
2023-01-03T10:00:09.807Z,20.90
2023-01-03T10:05:37.398Z,20.87
2023-01-03T10:10:49.472Z,20.88
2023-01-03T10:16:01.750Z,20.99
2023-01-03T10:21:08.800Z,20.98
2023-01-03T10:26:13.369Z,21.10
2023-01-03T10:31:31.827Z,21.01
2023-01-03T10:36:34.666Z,21.14
2023-01-03T10:41:43.281Z,21.11
2023-01-03T10:46:53.592Z,21.20
2023-01-03T10:51:59.991Z,21.32
2023-01-03T10:57:02.876Z,21.30
2023-01-03T11:02:17.534Z,21.29
2023-01-03T11:07:20.518Z,21.33
2023-01-03T11:12:29.621Z,21.37
2023-01-03T11:17:33.786Z,21.31
2023-01-03T11:22:42.854Z,21.17
2023-01-03T11:28:06.857Z,21.05
2023-01-03T11:33:34.404Z,20.96
2023-01-03T11:38:53.618Z,21.06
2023-01-03T11:44:25.125Z,21.38
2023-01-03T11:49:42.911Z,21.49
2023-01-03T11:55:14.358Z,21.53
2023-01-03T12:00:27.483Z,19.94
2023-01-03T12:05:57.398Z,20.51
2023-01-03T12:11:06.619Z,21.13
2023-01-03T12:16:13.518Z,21.31
2023-01-03T12:21:22.850Z,21.42
2023-01-03T12:26:27.436Z,21.64
2023-01-03T12:31:36.982Z,21.67
2023-01-03T12:36:48.364Z,21.74
2023-01-03T12:42:01.200Z,21.80
2023-01-03T12:47:06.859Z,21.81
2023-01-03T12:52:17.230Z,21.82
2023-01-03T12:57:39.668Z,21.82
2023-01-03T13:02:49.880Z,21.81
2023-01-03T13:08:04.944Z,21.81
2023-01-03T13:13:08.529Z,21.88
2023-01-03T13:18:29.736Z,21.97
2023-01-03T13:23:36.809Z,22.01
2023-01-03T13:28:41.128Z,22.07
2023-01-03T13:33:55.812Z,22.05
2023-01-03T13:39:01.674Z,22.05
2023-01-03T13:44:10.086Z,22.06
2023-01-03T13:49:19.536Z,22.05
2023-01-03T13:54:56.012Z,22.05
2023-01-03T14:00:01.153Z,22.10
2023-01-03T14:05:29.694Z,22.05
2023-01-03T14:11:00.529Z,20.12
2023-01-03T14:16:26.678Z,20.40
2023-01-03T14:21:43.696Z,19.59
2023-01-03T14:26:48.270Z,21.23
2023-01-03T14:31:55.761Z,21.35
2023-01-03T14:37:04.761Z,21.49
2023-01-03T14:42:16.596Z,21.57
2023-01-03T14:47:19.817Z,21.57
2023-01-03T14:52:30.217Z,21.56
2023-01-03T14:57:39.253Z,21.50
2023-01-03T15:02:42.519Z,21.40
2023-01-03T15:07:45.551Z,21.33
2023-01-03T15:12:51.435Z,21.30
2023-01-03T15:17:59.835Z,21.20
2023-01-03T15:23:03.382Z,21.23
2023-01-03T15:28:21.256Z,21.10
2023-01-03T15:33:33.088Z,21.17
2023-01-03T15:38:38.667Z,21.24
2023-01-03T15:43:43.225Z,21.22
2023-01-03T15:48:54.485Z,21.28
2023-01-03T15:53:57.277Z,21.36
2023-01-03T15:59:06.726Z,21.36
2023-01-03T16:04:11.136Z,21.40
2023-01-03T16:09:14.227Z,21.39
2023-01-03T16:14:22.225Z,21.41
2023-01-03T16:19:27.911Z,21.43
2023-01-03T16:24:32.817Z,21.42
2023-01-03T16:29:37.219Z,21.45
2023-01-03T16:34:40.009Z,21.46
2023-01-03T16:39:48.009Z,21.44
2023-01-03T16:44:52.959Z,21.45
2023-01-03T16:50:00.695Z,21.46
2023-01-03T16:55:07.248Z,21.49
2023-01-03T17:00:19.400Z,21.47
2023-01-03T17:05:23.280Z,21.53
2023-01-03T17:10:29.913Z,21.56
2023-01-03T17:15:34.094Z,21.66
2023-01-03T17:20:36.824Z,21.82
2023-01-03T17:25:41.513Z,22.00
2023-01-03T17:30:45.744Z,22.01
2023-01-03T17:35:48.801Z,22.11
2023-01-03T17:40:55.318Z,22.17
2023-01-03T17:46:23.481Z,22.23
2023-01-03T17:51:26.923Z,22.28
2023-01-03T17:56:31.149Z,22.35
2023-01-03T18:01:35.427Z,22.40
2023-01-03T18:06:39.533Z,22.47
2023-01-03T18:11:42.954Z,22.57
2023-01-03T18:16:53.169Z,22.66
2023-01-03T18:21:58.488Z,22.76
2023-01-03T18:27:01.356Z,22.84
2023-01-03T18:32:24.864Z,22.94
2023-01-03T18:37:33.247Z,23.08
2023-01-03T18:42:53.745Z,23.15
2023-01-03T18:47:57.995Z,23.18
2023-01-03T18:53:04.189Z,23.20
2023-01-03T18:58:15.118Z,23.26
2023-01-03T19:03:24.112Z,23.26
2023-01-03T19:08:30.414Z,23.31
2023-01-03T19:13:49.952Z,23.33
2023-01-03T19:18:55.450Z,23.35
2023-01-03T19:24:02.515Z,23.39
2023-01-03T19:29:08.252Z,23.52
2023-01-03T19:34:20.468Z,23.46
2023-01-03T19:39:25.888Z,23.54
2023-01-03T19:44:29.565Z,23.58
2023-01-03T19:49:33.761Z,23.61
2023-01-03T19:54:36.589Z,23.60
2023-01-03T19:59:39.945Z,23.66
2023-01-03T20:04:44.956Z,23.68
2023-01-03T20:09:47.924Z,23.70
2023-01-03T20:14:52.232Z,23.74
2023-01-03T20:19:56.400Z,23.77
2023-01-03T20:24:59.252Z,23.77
2023-01-03T20:30:02.017Z,23.80
2023-01-03T20:35:35.498Z,23.82
2023-01-03T20:40:30.122Z,23.85
2023-01-03T20:45:33.745Z,23.86
2023-01-03T20:50:38.071Z,23.88
2023-01-03T20:55:40.875Z,23.86
2023-01-03T21:00:44.035Z,23.89
2023-01-03T21:05:48.195Z,23.92
2023-01-03T21:10:53.646Z,23.93
2023-01-03T21:15:56.756Z,23.91
2023-01-03T21:21:05.981Z,23.91
2023-01-03T21:26:08.758Z,23.95
2023-01-03T21:31:18.345Z,23.95
2023-01-03T21:36:25.836Z,23.99
2023-01-03T21:41:31.137Z,24.00
2023-01-03T21:46:33.911Z,24.01
2023-01-03T21:51:39.308Z,24.00
2023-01-03T21:56:46.844Z,24.03
2023-01-03T22:02:15.700Z,24.02
2023-01-03T22:07:19.989Z,24.01
2023-01-03T22:12:23.953Z,24.01
2023-01-03T22:17:26.735Z,24.01
2023-01-03T22:22:31.202Z,23.97
2023-01-03T22:27:34.001Z,23.92
2023-01-03T22:32:36.762Z,23.89
2023-01-03T22:37:41.791Z,23.86
2023-01-03T22:42:45.014Z,23.85
2023-01-03T22:47:47.889Z,23.82
2023-01-03T22:52:52.008Z,23.72
2023-01-03T22:57:54.834Z,23.70
2023-01-03T23:02:57.675Z,23.78
2023-01-03T23:08:02.048Z,23.70
2023-01-03T23:13:04.823Z,23.60
2023-01-03T23:18:07.568Z,23.45
2023-01-03T23:23:11.720Z,23.36
2023-01-03T23:28:14.491Z,23.23
2023-01-03T23:33:17.382Z,23.09
2023-01-03T23:38:21.604Z,22.92
2023-01-03T23:43:24.393Z,22.76
2023-01-03T23:48:27.236Z,22.69
2023-01-03T23:53:31.575Z,22.56
2023-01-03T23:58:34.895Z,22.45
